sensor_id;sensor_type;location;lat;lon;timestamp;temperature;humidity
19906;DHT22;10115;50.906;4.438;2023-07-20T00:00:06;16.00;99.90
19906;DHT22;10115;50.906;4.438;2023-07-20T00:02:32;16.00;99.90
19906;DHT22;10115;50.906;4.438;2023-07-20T00:04:57;16.00;99.90
19906;DHT22;10115;50.906;4.438;2023-07-20T00:07:23;16.00;99.90
19906;DHT22;10115;50.906;4.438;2023-07-20T00:09:50;16.00;99.90
19906;DHT22;10115;50.906;4.438;2023-07-20T00:12:15;16.00;99.90
19906;DHT22;10115;50.906;4.438;2023-07-20T00:14:41;16.00;99.90
19906;DHT22;10115;50.906;4.438;2023-07-20T00:17:07;15.90;99.90
19906;DHT22;10115;50.906;4.438;2023-07-20T00:19:32;15.90;99.90
19906;DHT22;10115;50.906;4.438;2023-07-20T00:21:58;15.90;99.90
19906;DHT22;10115;50.906;4.438;2023-07-20T00:24:24;15.90;99.90
19906;DHT22;10115;50.906;4.438;2023-07-20T00:26:50;15.90;99.90
19906;DHT22;10115;50.906;4.438;2023-07-20T00:29:15;15.90;99.90
19906;DHT22;10115;50.906;4.438;2023-07-20T00:31:41;15.90;99.90
19906;DHT22;10115;50.906;4.438;2023-07-20T00:34:08;15.90;99.90
19906;DHT22;10115;50.906;4.438;2023-07-20T00:36:34;15.90;99.90
19906;DHT22;10115;50.906;4.438;2023-07-20T00:39:00;15.80;99.90
19906;DHT22;10115;50.906;4.438;2023-07-20T00:41:25;15.80;99.90
19906;DHT22;10115;50.906;4.438;2023-07-20T00:43:54;15.80;99.90
19906;DHT22;10115;50.906;4.438;2023-07-20T00:46:23;15.80;99.90
19906;DHT22;10115;50.906;4.438;2023-07-20T00:48:50;15.80;99.90
19906;DHT22;10115;50.906;4.438;2023-07-20T00:51:16;15.80;99.90
19906;DHT22;10115;50.906;4.438;2023-07-20T00:53:42;15.80;99.90
19906;DHT22;10115;50.906;4.438;2023-07-20T00:56:08;15.80;99.90
19906;DHT22;10115;50.906;4.438;2023-07-20T00:58:34;15.80;99.90
19906;DHT22;10115;50.906;4.438;2023-07-20T01:01:00;15.80;99.90
19906;DHT22;10115;50.906;4.438;2023-07-20T01:03:26;15.80;99.90
19906;DHT22;10115;50.906;4.438;2023-07-20T01:11:38;15.70;99.90
19906;DHT22;10115;50.906;4.438;2023-07-20T01:14:05;15.80;99.90
19906;DHT22;10115;50.906;4.438;2023-07-20T01:16:30;15.80;99.90
19906;DHT22;10115;50.906;4.438;2023-07-20T01:18:56;15.80;99.90
19906;DHT22;10115;50.906;4.438;2023-07-20T01:21:29;15.80;99.90
19906;DHT22;10115;50.906;4.438;2023-07-20T01:24:12;15.80;99.90
19906;DHT22;10115;50.906;4.438;2023-07-20T01:31:45;15.80;99.90
19906;DHT22;10115;50.906;4.438;2023-07-20T01:34:12;15.80;99.90
19906;DHT22;10115;50.906;4.438;2023-07-20T01:36:43;15.80;99.90
19906;DHT22;10115;50.906;4.438;2023-07-20T01:39:10;15.80;99.90
19906;DHT22;10115;50.906;4.438;2023-07-20T01:41:36;15.80;99.90
19906;DHT22;10115;50.906;4.438;2023-07-20T01:44:03;15.80;99.90
19906;DHT22;10115;50.906;4.438;2023-07-20T01:46:29;15.70;99.90
19906;DHT22;10115;50.906;4.438;2023-07-20T01:48:55;15.70;99.90
19906;DHT22;10115;50.906;4.438;2023-07-20T01:51:21;15.70;99.90
19906;DHT22;10115;50.906;4.438;2023-07-20T01:53:46;15.70;99.90
19906;DHT22;10115;50.906;4.438;2023-07-20T01:56:12;15.70;99.90
19906;DHT22;10115;50.906;4.438;2023-07-20T01:58:38;15.70;99.90
19906;DHT22;10115;50.906;4.438;2023-07-20T02:01:04;15.70;99.90
19906;DHT22;10115;50.906;4.438;2023-07-20T02:03:29;15.70;99.90
19906;DHT22;10115;50.906;4.438;2023-07-20T02:05:55;15.70;99.90
19906;DHT22;10115;50.906;4.438;2023-07-20T02:08:22;15.60;99.90
19906;DHT22;10115;50.906;4.438;2023-07-20T02:10:48;15.60;99.90
19906;DHT22;10115;50.906;4.438;2023-07-20T02:13:14;15.60;99.90
19906;DHT22;10115;50.906;4.438;2023-07-20T02:15:41;15.60;99.90
19906;DHT22;10115;50.906;4.438;2023-07-20T02:18:07;15.60;99.90
19906;DHT22;10115;50.906;4.438;2023-07-20T02:20:34;15.60;99.90
19906;DHT22;10115;50.906;4.438;2023-07-20T02:22:59;15.60;99.90
19906;DHT22;10115;50.906;4.438;2023-07-20T02:25:25;15.50;99.90
19906;DHT22;10115;50.906;4.438;2023-07-20T02:27:51;15.50;99.90
19906;DHT22;10115;50.906;4.438;2023-07-20T02:30:17;15.50;99.90
19906;DHT22;10115;50.906;4.438;2023-07-20T02:32:43;15.50;99.90
19906;DHT22;10115;50.906;4.438;2023-07-20T02:35:14;15.50;99.90
19906;DHT22;10115;50.906;4.438;2023-07-20T02:37:40;15.50;99.90
19906;DHT22;10115;50.906;4.438;2023-07-20T02:40:06;15.50;99.90
19906;DHT22;10115;50.906;4.438;2023-07-20T02:42:33;15.50;99.90
19906;DHT22;10115;50.906;4.438;2023-07-20T02:44:58;15.50;99.90
19906;DHT22;10115;50.906;4.438;2023-07-20T02:47:24;15.40;99.90
19906;DHT22;10115;50.906;4.438;2023-07-20T02:49:50;15.40;99.90
19906;DHT22;10115;50.906;4.438;2023-07-20T02:52:15;15.40;99.90
19906;DHT22;10115;50.906;4.438;2023-07-20T02:54:41;15.40;99.90
19906;DHT22;10115;50.906;4.438;2023-07-20T02:57:06;15.40;99.90
19906;DHT22;10115;50.906;4.438;2023-07-20T02:59:32;15.40;99.90
19906;DHT22;10115;50.906;4.438;2023-07-20T03:01:58;15.30;99.90
19906;DHT22;10115;50.906;4.438;2023-07-20T03:04:26;15.30;99.90
19906;DHT22;10115;50.906;4.438;2023-07-20T03:06:51;15.30;99.90
19906;DHT22;10115;50.906;4.438;2023-07-20T03:09:17;15.30;99.90
19906;DHT22;10115;50.906;4.438;2023-07-20T03:11:43;15.30;99.90
19906;DHT22;10115;50.906;4.438;2023-07-20T03:14:08;15.30;99.90
19906;DHT22;10115;50.906;4.438;2023-07-20T03:16:36;15.30;99.90
19906;DHT22;10115;50.906;4.438;2023-07-20T03:19:02;15.30;99.90
19906;DHT22;10115;50.906;4.438;2023-07-20T03:21:27;15.30;99.90
19906;DHT22;10115;50.906;4.438;2023-07-20T03:23:54;15.20;99.90
19906;DHT22;10115;50.906;4.438;2023-07-20T03:26:20;15.20;99.90
19906;DHT22;10115;50.906;4.438;2023-07-20T03:28:45;15.20;99.90
19906;DHT22;10115;50.906;4.438;2023-07-20T03:31:11;15.30;99.90
19906;DHT22;10115;50.906;4.438;2023-07-20T03:33:37;15.30;99.90
19906;DHT22;10115;50.906;4.438;2023-07-20T03:36:02;15.30;99.90
19906;DHT22;10115;50.906;4.438;2023-07-20T03:38:28;15.30;99.90
19906;DHT22;10115;50.906;4.438;2023-07-20T03:40:55;15.30;99.90
19906;DHT22;10115;50.906;4.438;2023-07-20T03:43:21;15.30;99.90
19906;DHT22;10115;50.906;4.438;2023-07-20T03:45:47;15.30;99.90
19906;DHT22;10115;50.906;4.438;2023-07-20T03:48:20;15.30;99.90
19906;DHT22;10115;50.906;4.438;2023-07-20T03:50:48;15.30;99.90
19906;DHT22;10115;50.906;4.438;2023-07-20T03:53:15;15.30;99.90
19906;DHT22;10115;50.906;4.438;2023-07-20T03:55:51;15.40;99.90
19906;DHT22;10115;50.906;4.438;2023-07-20T03:58:17;15.40;99.90
19906;DHT22;10115;50.906;4.438;2023-07-20T04:00:51;15.40;99.90
19906;DHT22;10115;50.906;4.438;2023-07-20T04:03:17;15.40;99.90
19906;DHT22;10115;50.906;4.438;2023-07-20T04:05:44;15.40;99.90
19906;DHT22;10115;50.906;4.438;2023-07-20T04:08:10;15.40;99.90
19906;DHT22;10115;50.906;4.438;2023-07-20T04:10:39;15.50;99.90
19906;DHT22;10115;50.906;4.438;2023-07-20T04:13:08;15.40;99.90
19906;DHT22;10115;50.906;4.438;2023-07-20T04:15:34;15.50;99.90
19906;DHT22;10115;50.906;4.438;2023-07-20T04:17:59;15.40;99.90
19906;DHT22;10115;50.906;4.438;2023-07-20T04:20:26;15.50;99.90
19906;DHT22;10115;50.906;4.438;2023-07-20T04:22:52;15.50;99.90
19906;DHT22;10115;50.906;4.438;2023-07-20T04:25:18;15.50;99.90
19906;DHT22;10115;50.906;4.438;2023-07-20T04:27:43;15.50;99.90
19906;DHT22;10115;50.906;4.438;2023-07-20T04:30:10;15.50;99.90
19906;DHT22;10115;50.906;4.438;2023-07-20T04:32:37;15.50;99.90
19906;DHT22;10115;50.906;4.438;2023-07-20T04:35:06;15.50;99.90
19906;DHT22;10115;50.906;4.438;2023-07-20T04:37:33;15.50;99.90
19906;DHT22;10115;50.906;4.438;2023-07-20T04:39:59;15.50;99.90
19906;DHT22;10115;50.906;4.438;2023-07-20T04:42:24;15.50;99.90
19906;DHT22;10115;50.906;4.438;2023-07-20T04:44:50;15.60;99.90
19906;DHT22;10115;50.906;4.438;2023-07-20T04:47:15;15.60;99.90
19906;DHT22;10115;50.906;4.438;2023-07-20T04:49:41;15.60;99.90
19906;DHT22;10115;50.906;4.438;2023-07-20T04:52:08;15.70;99.90
19906;DHT22;10115;50.906;4.438;2023-07-20T04:54:33;15.70;99.90
19906;DHT22;10115;50.906;4.438;2023-07-20T04:56:59;15.60;99.90
19906;DHT22;10115;50.906;4.438;2023-07-20T04:59:25;15.70;99.90
19906;DHT22;10115;50.906;4.438;2023-07-20T05:01:50;15.90;99.90
19906;DHT22;10115;50.906;4.438;2023-07-20T05:04:16;16.00;99.90
19906;DHT22;10115;50.906;4.438;2023-07-20T05:06:41;15.90;99.90
19906;DHT22;10115;50.906;4.438;2023-07-20T05:09:08;15.80;99.90
19906;DHT22;10115;50.906;4.438;2023-07-20T05:11:34;15.80;99.90
19906;DHT22;10115;50.906;4.438;2023-07-20T05:14:00;15.80;99.90
19906;DHT22;10115;50.906;4.438;2023-07-20T05:16:26;15.80;99.90
19906;DHT22;10115;50.906;4.438;2023-07-20T05:18:51;15.90;99.90
19906;DHT22;10115;50.906;4.438;2023-07-20T05:21:17;15.90;99.90
19906;DHT22;10115;50.906;4.438;2023-07-20T05:23:42;15.90;99.90
19906;DHT22;10115;50.906;4.438;2023-07-20T05:26:08;15.90;99.90
19906;DHT22;10115;50.906;4.438;2023-07-20T05:28:34;16.00;99.90
19906;DHT22;10115;50.906;4.438;2023-07-20T05:31:03;16.10;99.90
19906;DHT22;10115;50.906;4.438;2023-07-20T05:33:28;16.00;99.90
19906;DHT22;10115;50.906;4.438;2023-07-20T05:35:54;16.00;99.90
19906;DHT22;10115;50.906;4.438;2023-07-20T05:38:19;16.00;99.90
19906;DHT22;10115;50.906;4.438;2023-07-20T05:40:45;16.00;99.90
19906;DHT22;10115;50.906;4.438;2023-07-20T05:43:12;16.10;99.90
19906;DHT22;10115;50.906;4.438;2023-07-20T05:45:41;16.10;99.90
19906;DHT22;10115;50.906;4.438;2023-07-20T05:48:07;16.10;99.90
19906;DHT22;10115;50.906;4.438;2023-07-20T05:50:35;16.10;99.90
19906;DHT22;10115;50.906;4.438;2023-07-20T05:53:00;16.20;99.90
19906;DHT22;10115;50.906;4.438;2023-07-20T05:55:26;16.40;99.90
19906;DHT22;10115;50.906;4.438;2023-07-20T05:57:51;16.50;99.90
19906;DHT22;10115;50.906;4.438;2023-07-20T06:00:17;16.50;99.90
19906;DHT22;10115;50.906;4.438;2023-07-20T06:02:44;16.60;99.90
19906;DHT22;10115;50.906;4.438;2023-07-20T06:05:10;16.50;99.90
19906;DHT22;10115;50.906;4.438;2023-07-20T06:07:39;16.50;99.90
19906;DHT22;10115;50.906;4.438;2023-07-20T06:10:06;16.50;99.90
19906;DHT22;10115;50.906;4.438;2023-07-20T06:12:32;16.60;99.90
19906;DHT22;10115;50.906;4.438;2023-07-20T06:15:04;16.90;99.90
19906;DHT22;10115;50.906;4.438;2023-07-20T06:17:30;17.00;99.90
19906;DHT22;10115;50.906;4.438;2023-07-20T06:19:57;17.10;99.90
19906;DHT22;10115;50.906;4.438;2023-07-20T06:22:22;17.50;99.90
19906;DHT22;10115;50.906;4.438;2023-07-20T06:24:48;17.60;99.90
19906;DHT22;10115;50.906;4.438;2023-07-20T06:27:13;17.80;99.90
19906;DHT22;10115;50.906;4.438;2023-07-20T06:29:39;18.00;99.90
19906;DHT22;10115;50.906;4.438;2023-07-20T06:32:05;17.80;99.90
19906;DHT22;10115;50.906;4.438;2023-07-20T06:34:32;18.00;99.90
19906;DHT22;10115;50.906;4.438;2023-07-20T06:37:02;17.70;99.90
19906;DHT22;10115;50.906;4.438;2023-07-20T06:39:29;17.50;99.90
19906;DHT22;10115;50.906;4.438;2023-07-20T06:41:55;17.40;99.90
19906;DHT22;10115;50.906;4.438;2023-07-20T06:44:20;17.60;99.90
19906;DHT22;10115;50.906;4.438;2023-07-20T06:46:46;17.90;99.90
19906;DHT22;10115;50.906;4.438;2023-07-20T06:49:27;18.10;99.90
19906;DHT22;10115;50.906;4.438;2023-07-20T06:51:53;18.10;99.90
19906;DHT22;10115;50.906;4.438;2023-07-20T06:54:18;18.30;99.90
19906;DHT22;10115;50.906;4.438;2023-07-20T06:56:44;18.40;99.90
19906;DHT22;10115;50.906;4.438;2023-07-20T06:59:10;18.60;99.90
19906;DHT22;10115;50.906;4.438;2023-07-20T07:01:35;18.90;99.90
19906;DHT22;10115;50.906;4.438;2023-07-20T07:04:01;19.00;99.90
19906;DHT22;10115;50.906;4.438;2023-07-20T07:06:27;19.10;99.90
19906;DHT22;10115;50.906;4.438;2023-07-20T07:08:55;19.00;99.90
19906;DHT22;10115;50.906;4.438;2023-07-20T07:11:21;19.20;99.90
19906;DHT22;10115;50.906;4.438;2023-07-20T07:13:47;19.60;99.90
19906;DHT22;10115;50.906;4.438;2023-07-20T07:16:15;19.60;99.90
19906;DHT22;10115;50.906;4.438;2023-07-20T07:18:44;19.40;99.90
19906;DHT22;10115;50.906;4.438;2023-07-20T07:21:10;19.40;99.90
19906;DHT22;10115;50.906;4.438;2023-07-20T07:23:36;19.40;99.90
19906;DHT22;10115;50.906;4.438;2023-07-20T07:26:01;19.40;99.90
19906;DHT22;10115;50.906;4.438;2023-07-20T07:28:28;19.50;99.90
19906;DHT22;10115;50.906;4.438;2023-07-20T07:30:55;19.80;99.90
19906;DHT22;10115;50.906;4.438;2023-07-20T07:33:22;19.80;99.90
19906;DHT22;10115;50.906;4.438;2023-07-20T07:35:48;19.80;99.90
19906;DHT22;10115;50.906;4.438;2023-07-20T07:38:14;19.80;99.90
19906;DHT22;10115;50.906;4.438;2023-07-20T07:40:40;19.80;99.90
19906;DHT22;10115;50.906;4.438;2023-07-20T07:43:05;20.00;99.90
19906;DHT22;10115;50.906;4.438;2023-07-20T07:45:35;20.40;99.90
19906;DHT22;10115;50.906;4.438;2023-07-20T07:48:04;20.50;99.90
19906;DHT22;10115;50.906;4.438;2023-07-20T07:50:30;20.30;99.90
19906;DHT22;10115;50.906;4.438;2023-07-20T07:52:55;20.20;99.90
19906;DHT22;10115;50.906;4.438;2023-07-20T07:55:21;20.20;99.90
19906;DHT22;10115;50.906;4.438;2023-07-20T07:57:47;20.20;99.90
19906;DHT22;10115;50.906;4.438;2023-07-20T08:00:13;20.00;99.90
19906;DHT22;10115;50.906;4.438;2023-07-20T08:02:43;19.50;99.90
19906;DHT22;10115;50.906;4.438;2023-07-20T08:05:09;19.10;99.90
19906;DHT22;10115;50.906;4.438;2023-07-20T08:07:38;19.40;99.90
19906;DHT22;10115;50.906;4.438;2023-07-20T08:10:05;18.80;99.90
19906;DHT22;10115;50.906;4.438;2023-07-20T08:12:31;18.50;99.90
19906;DHT22;10115;50.906;4.438;2023-07-20T08:14:57;18.40;99.90
19906;DHT22;10115;50.906;4.438;2023-07-20T08:17:22;18.00;99.90
19906;DHT22;10115;50.906;4.438;2023-07-20T08:19:48;18.20;99.90
19906;DHT22;10115;50.906;4.438;2023-07-20T08:22:14;18.40;99.90
19906;DHT22;10115;50.906;4.438;2023-07-20T08:24:40;18.50;99.90
19906;DHT22;10115;50.906;4.438;2023-07-20T08:27:06;18.80;99.90
19906;DHT22;10115;50.906;4.438;2023-07-20T08:29:32;19.10;99.90
19906;DHT22;10115;50.906;4.438;2023-07-20T08:31:58;19.60;99.90
19906;DHT22;10115;50.906;4.438;2023-07-20T08:34:23;20.10;99.90
19906;DHT22;10115;50.906;4.438;2023-07-20T08:36:49;20.20;99.90
19906;DHT22;10115;50.906;4.438;2023-07-20T08:39:14;20.60;99.90
19906;DHT22;10115;50.906;4.438;2023-07-20T08:41:42;19.70;99.90
19906;DHT22;10115;50.906;4.438;2023-07-20T08:44:09;19.70;99.90
19906;DHT22;10115;50.906;4.438;2023-07-20T08:46:35;20.50;99.90
19906;DHT22;10115;50.906;4.438;2023-07-20T08:49:03;20.50;99.90
19906;DHT22;10115;50.906;4.438;2023-07-20T08:51:30;20.70;99.90
19906;DHT22;10115;50.906;4.438;2023-07-20T08:53:56;20.40;99.90
19906;DHT22;10115;50.906;4.438;2023-07-20T08:56:25;19.70;99.90
19906;DHT22;10115;50.906;4.438;2023-07-20T08:58:52;19.30;99.90
19906;DHT22;10115;50.906;4.438;2023-07-20T09:01:19;19.50;99.90
19906;DHT22;10115;50.906;4.438;2023-07-20T09:03:46;19.70;99.90
19906;DHT22;10115;50.906;4.438;2023-07-20T09:06:15;20.20;99.90
19906;DHT22;10115;50.906;4.438;2023-07-20T09:08:42;20.00;99.90
19906;DHT22;10115;50.906;4.438;2023-07-20T09:11:10;20.50;99.90
19906;DHT22;10115;50.906;4.438;2023-07-20T09:13:38;20.50;99.90
19906;DHT22;10115;50.906;4.438;2023-07-20T09:16:03;20.90;99.90
19906;DHT22;10115;50.906;4.438;2023-07-20T09:18:31;21.30;99.90
19906;DHT22;10115;50.906;4.438;2023-07-20T09:21:06;21.50;99.90
19906;DHT22;10115;50.906;4.438;2023-07-20T09:23:33;21.90;99.90
19906;DHT22;10115;50.906;4.438;2023-07-20T09:26:00;22.10;99.90
19906;DHT22;10115;50.906;4.438;2023-07-20T09:28:26;22.60;99.90
19906;DHT22;10115;50.906;4.438;2023-07-20T09:30:54;22.80;99.90
19906;DHT22;10115;50.906;4.438;2023-07-20T09:33:24;22.80;99.90
19906;DHT22;10115;50.906;4.438;2023-07-20T09:35:50;21.70;99.90
19906;DHT22;10115;50.906;4.438;2023-07-20T09:38:15;21.40;99.90
19906;DHT22;10115;50.906;4.438;2023-07-20T09:40:42;21.40;99.90
19906;DHT22;10115;50.906;4.438;2023-07-20T09:43:09;21.10;99.90
19906;DHT22;10115;50.906;4.438;2023-07-20T09:45:40;20.40;99.90
19906;DHT22;10115;50.906;4.438;2023-07-20T09:48:07;20.70;99.90
19906;DHT22;10115;50.906;4.438;2023-07-20T09:50:43;20.80;99.90
19906;DHT22;10115;50.906;4.438;2023-07-20T09:53:13;20.60;99.90
19906;DHT22;10115;50.906;4.438;2023-07-20T09:55:41;20.50;99.90
19906;DHT22;10115;50.906;4.438;2023-07-20T09:58:08;20.70;99.90
19906;DHT22;10115;50.906;4.438;2023-07-20T10:00:36;21.30;99.90
19906;DHT22;10115;50.906;4.438;2023-07-20T10:03:04;20.90;99.90
19906;DHT22;10115;50.906;4.438;2023-07-20T10:05:33;21.10;99.90
19906;DHT22;10115;50.906;4.438;2023-07-20T10:08:02;21.50;99.90
19906;DHT22;10115;50.906;4.438;2023-07-20T10:10:29;21.30;99.90
19906;DHT22;10115;50.906;4.438;2023-07-20T10:12:57;21.10;99.90
19906;DHT22;10115;50.906;4.438;2023-07-20T10:15:33;21.40;99.90
19906;DHT22;10115;50.906;4.438;2023-07-20T10:18:12;21.60;99.90
19906;DHT22;10115;50.906;4.438;2023-07-20T10:20:40;21.50;99.90
19906;DHT22;10115;50.906;4.438;2023-07-20T10:23:09;21.90;99.90
19906;DHT22;10115;50.906;4.438;2023-07-20T10:25:35;22.10;99.90
19906;DHT22;10115;50.906;4.438;2023-07-20T10:28:07;22.60;99.90
19906;DHT22;10115;50.906;4.438;2023-07-20T10:30:36;21.90;99.90
19906;DHT22;10115;50.906;4.438;2023-07-20T10:33:03;21.90;99.90
19906;DHT22;10115;50.906;4.438;2023-07-20T10:35:30;22.50;99.90
19906;DHT22;10115;50.906;4.438;2023-07-20T10:38:02;22.60;99.90
19906;DHT22;10115;50.906;4.438;2023-07-20T10:40:33;22.50;99.90
19906;DHT22;10115;50.906;4.438;2023-07-20T10:43:00;22.30;99.90
19906;DHT22;10115;50.906;4.438;2023-07-20T10:45:48;22.00;99.90
19906;DHT22;10115;50.906;4.438;2023-07-20T10:48:19;21.70;99.90
19906;DHT22;10115;50.906;4.438;2023-07-20T10:50:45;22.20;99.90
19906;DHT22;10115;50.906;4.438;2023-07-20T10:53:17;22.80;99.90
19906;DHT22;10115;50.906;4.438;2023-07-20T10:55:43;23.20;99.90
19906;DHT22;10115;50.906;4.438;2023-07-20T10:58:11;22.60;99.90
19906;DHT22;10115;50.906;4.438;2023-07-20T11:00:54;22.30;99.90
19906;DHT22;10115;50.906;4.438;2023-07-20T11:03:32;22.70;99.90
19906;DHT22;10115;50.906;4.438;2023-07-20T11:05:58;22.00;99.90
19906;DHT22;10115;50.906;4.438;2023-07-20T11:08:43;22.20;99.90
19906;DHT22;10115;50.906;4.438;2023-07-20T11:11:26;22.20;99.90
19906;DHT22;10115;50.906;4.438;2023-07-20T11:14:00;22.60;99.90
19906;DHT22;10115;50.906;4.438;2023-07-20T11:16:53;22.60;99.90
19906;DHT22;10115;50.906;4.438;2023-07-20T11:21:47;22.40;99.90
19906;DHT22;10115;50.906;4.438;2023-07-20T11:24:15;22.20;99.90
19906;DHT22;10115;50.906;4.438;2023-07-20T11:26:44;22.60;99.90
19906;DHT22;10115;50.906;4.438;2023-07-20T11:29:10;22.40;99.90
19906;DHT22;10115;50.906;4.438;2023-07-20T11:31:38;22.60;99.90
19906;DHT22;10115;50.906;4.438;2023-07-20T11:34:04;22.90;99.90
19906;DHT22;10115;50.906;4.438;2023-07-20T11:36:30;23.00;99.90
19906;DHT22;10115;50.906;4.438;2023-07-20T11:38:57;22.60;99.90
19906;DHT22;10115;50.906;4.438;2023-07-20T11:41:24;22.60;99.90
19906;DHT22;10115;50.906;4.438;2023-07-20T11:43:51;22.90;99.90
19906;DHT22;10115;50.906;4.438;2023-07-20T11:46:17;23.10;99.90
19906;DHT22;10115;50.906;4.438;2023-07-20T11:48:42;23.20;99.90
19906;DHT22;10115;50.906;4.438;2023-07-20T11:51:16;22.50;99.90
19906;DHT22;10115;50.906;4.438;2023-07-20T11:53:45;21.90;99.90
19906;DHT22;10115;50.906;4.438;2023-07-20T11:56:12;21.90;99.90
19906;DHT22;10115;50.906;4.438;2023-07-20T11:58:44;22.10;99.90
19906;DHT22;10115;50.906;4.438;2023-07-20T12:01:12;22.50;99.90
19906;DHT22;10115;50.906;4.438;2023-07-20T12:03:38;22.60;99.90
19906;DHT22;10115;50.906;4.438;2023-07-20T12:06:07;23.00;99.90
19906;DHT22;10115;50.906;4.438;2023-07-20T12:08:33;23.20;99.90
19906;DHT22;10115;50.906;4.438;2023-07-20T12:10:59;23.60;99.90
19906;DHT22;10115;50.906;4.438;2023-07-20T12:13:43;23.90;99.90
19906;DHT22;10115;50.906;4.438;2023-07-20T12:16:16;24.20;99.90
19906;DHT22;10115;50.906;4.438;2023-07-20T12:18:45;24.30;99.90
19906;DHT22;10115;50.906;4.438;2023-07-20T12:21:11;24.60;99.90
19906;DHT22;10115;50.906;4.438;2023-07-20T12:23:40;24.60;99.90
19906;DHT22;10115;50.906;4.438;2023-07-20T12:26:09;25.00;99.90
19906;DHT22;10115;50.906;4.438;2023-07-20T12:28:40;24.90;99.90
19906;DHT22;10115;50.906;4.438;2023-07-20T12:31:09;24.80;99.90
19906;DHT22;10115;50.906;4.438;2023-07-20T12:33:39;24.90;99.90
19906;DHT22;10115;50.906;4.438;2023-07-20T12:36:05;24.20;99.90
19906;DHT22;10115;50.906;4.438;2023-07-20T12:38:30;24.40;99.90
19906;DHT22;10115;50.906;4.438;2023-07-20T12:40:57;24.20;99.90
19906;DHT22;10115;50.906;4.438;2023-07-20T12:43:24;24.00;99.90
19906;DHT22;10115;50.906;4.438;2023-07-20T12:45:49;24.20;99.90
19906;DHT22;10115;50.906;4.438;2023-07-20T12:48:15;23.60;99.90
19906;DHT22;10115;50.906;4.438;2023-07-20T12:50:41;23.20;99.90
19906;DHT22;10115;50.906;4.438;2023-07-20T12:53:07;22.70;99.90
19906;DHT22;10115;50.906;4.438;2023-07-20T12:55:33;22.80;99.90
19906;DHT22;10115;50.906;4.438;2023-07-20T12:57:58;22.30;99.90
19906;DHT22;10115;50.906;4.438;2023-07-20T13:00:24;22.20;99.90
19906;DHT22;10115;50.906;4.438;2023-07-20T13:02:53;22.00;99.90
19906;DHT22;10115;50.906;4.438;2023-07-20T13:05:18;22.10;99.90
19906;DHT22;10115;50.906;4.438;2023-07-20T13:07:44;22.10;99.90
19906;DHT22;10115;50.906;4.438;2023-07-20T13:10:11;22.20;99.90
19906;DHT22;10115;50.906;4.438;2023-07-20T13:12:38;22.20;99.90
19906;DHT22;10115;50.906;4.438;2023-07-20T13:15:05;22.10;99.90
19906;DHT22;10115;50.906;4.438;2023-07-20T13:17:38;22.00;99.90
19906;DHT22;10115;50.906;4.438;2023-07-20T13:20:05;22.30;99.90
19906;DHT22;10115;50.906;4.438;2023-07-20T13:22:32;22.70;99.90
19906;DHT22;10115;50.906;4.438;2023-07-20T13:24:58;23.40;99.90
19906;DHT22;10115;50.906;4.438;2023-07-20T13:27:23;23.40;99.90
19906;DHT22;10115;50.906;4.438;2023-07-20T13:29:51;22.70;99.90
19906;DHT22;10115;50.906;4.438;2023-07-20T13:32:17;22.50;99.90
19906;DHT22;10115;50.906;4.438;2023-07-20T13:34:44;22.60;99.90
19906;DHT22;10115;50.906;4.438;2023-07-20T13:37:10;22.10;99.90
19906;DHT22;10115;50.906;4.438;2023-07-20T13:39:37;22.30;99.90
19906;DHT22;10115;50.906;4.438;2023-07-20T13:42:02;21.80;99.90
19906;DHT22;10115;50.906;4.438;2023-07-20T13:44:33;21.50;99.90
19906;DHT22;10115;50.906;4.438;2023-07-20T13:47:00;21.80;99.90
19906;DHT22;10115;50.906;4.438;2023-07-20T13:49:26;22.00;99.90
19906;DHT22;10115;50.906;4.438;2023-07-20T13:51:52;22.00;99.90
19906;DHT22;10115;50.906;4.438;2023-07-20T13:54:17;22.10;99.90
19906;DHT22;10115;50.906;4.438;2023-07-20T13:56:43;22.10;99.90
19906;DHT22;10115;50.906;4.438;2023-07-20T13:59:09;22.20;99.90
19906;DHT22;10115;50.906;4.438;2023-07-20T14:01:34;22.30;99.90
19906;DHT22;10115;50.906;4.438;2023-07-20T14:04:01;22.30;99.90
19906;DHT22;10115;50.906;4.438;2023-07-20T14:06:30;22.20;99.90
19906;DHT22;10115;50.906;4.438;2023-07-20T14:08:56;22.10;99.90
19906;DHT22;10115;50.906;4.438;2023-07-20T14:11:23;21.60;99.90
19906;DHT22;10115;50.906;4.438;2023-07-20T14:13:50;21.90;99.90
19906;DHT22;10115;50.906;4.438;2023-07-20T14:16:16;21.80;99.90
19906;DHT22;10115;50.906;4.438;2023-07-20T14:18:42;22.00;99.90
19906;DHT22;10115;50.906;4.438;2023-07-20T14:21:08;22.40;99.90
19906;DHT22;10115;50.906;4.438;2023-07-20T14:23:33;22.90;99.90
19906;DHT22;10115;50.906;4.438;2023-07-20T14:25:59;23.40;99.90
19906;DHT22;10115;50.906;4.438;2023-07-20T14:28:25;23.80;99.90
19906;DHT22;10115;50.906;4.438;2023-07-20T14:30:51;24.30;99.90
19906;DHT22;10115;50.906;4.438;2023-07-20T14:33:16;25.40;99.90
19906;DHT22;10115;50.906;4.438;2023-07-20T14:35:42;26.80;99.90
19906;DHT22;10115;50.906;4.438;2023-07-20T14:38:08;27.60;99.90
19906;DHT22;10115;50.906;4.438;2023-07-20T14:40:33;27.90;99.90
19906;DHT22;10115;50.906;4.438;2023-07-20T14:42:59;26.40;99.90
19906;DHT22;10115;50.906;4.438;2023-07-20T14:45:27;26.30;99.90
19906;DHT22;10115;50.906;4.438;2023-07-20T14:47:53;25.70;99.90
19906;DHT22;10115;50.906;4.438;2023-07-20T14:50:22;26.50;99.90
19906;DHT22;10115;50.906;4.438;2023-07-20T14:52:48;26.70;99.90
19906;DHT22;10115;50.906;4.438;2023-07-20T14:55:14;26.80;99.90
19906;DHT22;10115;50.906;4.438;2023-07-20T14:57:40;27.60;99.90
19906;DHT22;10115;50.906;4.438;2023-07-20T15:00:06;27.00;99.90
19906;DHT22;10115;50.906;4.438;2023-07-20T15:02:36;26.70;99.90
19906;DHT22;10115;50.906;4.438;2023-07-20T15:05:03;25.80;99.90
19906;DHT22;10115;50.906;4.438;2023-07-20T15:07:28;25.50;99.90
19906;DHT22;10115;50.906;4.438;2023-07-20T15:09:54;25.20;99.90
19906;DHT22;10115;50.906;4.438;2023-07-20T15:12:20;25.10;99.90
19906;DHT22;10115;50.906;4.438;2023-07-20T15:15:02;25.20;99.90
19906;DHT22;10115;50.906;4.438;2023-07-20T15:17:28;24.80;99.90
19906;DHT22;10115;50.906;4.438;2023-07-20T15:19:54;24.50;99.90
19906;DHT22;10115;50.906;4.438;2023-07-20T15:22:19;23.80;99.90
19906;DHT22;10115;50.906;4.438;2023-07-20T15:24:47;23.40;99.90
19906;DHT22;10115;50.906;4.438;2023-07-20T15:27:13;23.20;99.90
19906;DHT22;10115;50.906;4.438;2023-07-20T15:29:38;22.90;99.90
19906;DHT22;10115;50.906;4.438;2023-07-20T15:32:04;23.00;99.90
19906;DHT22;10115;50.906;4.438;2023-07-20T15:34:31;22.70;99.90
19906;DHT22;10115;50.906;4.438;2023-07-20T15:36:57;22.40;99.90
19906;DHT22;10115;50.906;4.438;2023-07-20T15:39:23;22.30;99.90
19906;DHT22;10115;50.906;4.438;2023-07-20T15:41:49;22.00;99.90